LDDULYTV

Guest
Details From LDDU - DUBROVNIK
To LYTV - Tivat
Flight Number -
Tags generated
Created
Modified
Stats Distance 22 nm / 42 km
Max Altitude 200 ft / 61 m
Waypoints 3
Social Downloads 0
Likes 0
Share VATSIM

Download

Looking for another format? Having issues loading an existing format? Contact us
Advertisement - Login to hide

Notes

Basic altitude profile: - Ascent Rate: 2500ft/min - Ascent Speed: 250kts - Cruise Altitude: 35000ft - Cruise Speed: 420kts - Descent Rate: 1500ft/min - Descent Speed: 250kts Options: - Use NATs: no - Use PACOTS: yes - Use low airways: yes - Use high airways: no

Route

LDDU DBK LYTV

ID Type Via Altitude Latitude Longitude Leg Dist Tot Dist Heading (true) Name
O LDDU APT - 0 ft / 0 m 42.56284˚ 18.26450˚ - 0 nm - DUBROVNIK
DBK VOR - 200 ft / 61 m 42.55384˚ 18.27743˚ 0 nm 0 nm 133° / 133° DUBROVNIK VOR-DME
O LYTV APT - 0 ft / 0 m 42.40466˚ 18.72329˚ 21 nm 22 nm 114° / 115° Tivat

Altitude Profile

Advertisement - Login to hide

LDDU

Details ICAO LDDU (DBV)
Name DUBROVNIK
Region Croatia
Timezone Europe/Zagreb (UTC+1.0)
Stats Elevation 527 ft / 161 m (AMSL)
Location 42.562840° 18.264499°
Runways 1
Magnetic Variation 4.100° E

METAR

LDDU 160330Z 20014G26KT 150V260 9999 RA BKN045 13/13 Q1002 NOSIG

Decode

TAF

TAF LDDU 152325Z 1600/1700 14016KT 8000 SCT010 BKN030 TX13/1600Z TN08/1623Z TEMPO 1600/1609 4000 RA SCT005 BKN010 TEMPO 1600/1604 16018G28KT PROB40 TEMPO 1602/1606 24015G25KT 3000 TSRA FEW020CB BKN025 BECMG 1605/1607 30008KT BECMG 1616/1618 02010KT

Decode

Departure Runways

ID Width Length Bearing (true) Bearing (mag) Surface Threshold Offset Overrun Length
12 148 ft / 45 m 10,803 ft / 3,293 m 118.30° 114.20° Asphalt 488 ft / 149 m 100 ft / 30 m
30 148 ft / 45 m 10,803 ft / 3,293 m 298.33° 294.23° Asphalt 0 ft / 0 m 100 ft / 30 m

LYTV

Details ICAO LYTV (TIV)
Name Tivat
Region Serbia and Montenegro
Timezone Europe/Podgorica (UTC+1.0)
Stats Elevation 20 ft / 6 m (AMSL)
Location 42.404657° 18.723295°
Runways 1
Magnetic Variation 4.163° E

METAR

LYTV 160300Z 16019G29KT 9999 FEW010 BKN027 OVC070 15/13 Q1002

Decode

TAF

TAF LYTV 152300Z 1600/1624 15015KT 9999 FEW010 BKN027 OVC070 TX13/1612Z TN11/1605Z TEMPO 1600/1609 15020G35KT RA PROB40 TEMPO 1600/1606 5000 TSRA FEW027CB BKN030 BECMG 1609/1611 16005KT TEMPO 1617/1624 5000 RA

Decode

Destination Runways

ID Width Length Bearing (true) Bearing (mag) Surface Threshold Offset Overrun Length
14 148 ft / 45 m 8,206 ft / 2,501 m 139.03° 134.87° Asphalt 300 ft / 91 m 0 ft / 0 m
32 148 ft / 45 m 8,206 ft / 2,501 m 319.04° 314.88° Asphalt 300 ft / 91 m 0 ft / 0 m

Approach Navaids

Runway Type Ident Frequency Range Bearing (true) Bearing (mag) Slope Elevation
32 Localiser TIV 111.30 MHz 50 nm / 93 km 339.00° 334.84° - 56 ft / 17 m (AMSL)
32 DME TIV 111.30 MHz 18 nm / 33 km - - - 49 ft / 15 m (AMSL)

Popular Alternatives